• Join FlightAware (Why Join?)
  • Login
  • US Flag 
08:39PM EDT


 

Airport Tracker/Info


-or-


 

Live Flight TrackerFlight Track Log ✈ SWA59 ✈ 04-Oct-2013 ✈ KDAL - KHOU

Flight Track Log - Related Links

Times and Time Zones

All times are in EDT time to prevent confusion due to time zone crossing. See the SWA59 flight status page for this flight to view local times or setup timezone preferences in your user account.

Time Position Orientation Groundspeed Altitude Reporting Facility
EDT Latitude Longitude Course Direction KTS MPH feet Rate Location/Type
10:09PM 32.7711 -96.7736 141° Southeast 240 276 5,500  Level Fort Worth Center
10:10PM 32.7044 -96.7936 194° South 239 275 8,700 2,880 Climbing Fort Worth Center
10:11PM 32.6128 -96.7969 182° South 295 339 11,300 2,520 Climbing Fort Worth Center
10:12PM 32.5167 -96.8025 183° South 358 412 13,800 2,760 Climbing Fort Worth Center
10:13PM 32.3978 -96.8081 182° South 394 453 16,900 2,820 Climbing Fort Worth Center
10:14PM 32.2956 -96.8114 182° South 406 467 19,500 2,400 Climbing Fort Worth Center
10:15PM 32.1639 -96.8194 183° South 420 483 21,800 2,280 Climbing Fort Worth Center
10:16PM 32.0428 -96.8228 181° South 425 489 24,100 2,160 Climbing Fort Worth Center
10:17PM 31.9239 -96.8308 183° South 425 489 26,200 2,220 Climbing Fort Worth Center
10:18PM 31.7831 -96.8339 181° South 435 501 29,000 2,100 Climbing Houston Center
10:19PM 31.6628 -96.8300 178° South 430 495 30,800 1,620 Climbing Houston Center
10:20PM 31.5375 -96.8108 173° South 445 512 32,300 1,080 Climbing Houston Center
10:21PM 31.4150 -96.7753 166° South 450 518 33,000 300 Climbing Houston Center
10:22PM 31.2956 -96.7167 157° South 458 527 33,000  Level Houston Center
10:23PM 31.1781 -96.6597 157° South 453 521 33,000  Level Houston Center
10:24PM 31.0581 -96.6033 158° South 456 525 33,000 -360 Level Houston Center
10:25PM 30.9389 -96.5481 158° South 454 522 32,300 -1,020 Descending Houston Center
10:26PM 30.8178 -96.4908 158° South 461 531 31,000 -3,000 Descending Houston Center
10:27PM 30.6950 -96.4336 158° South 466 536 26,200 -4,020 Descending Houston Center
10:29PM 30.5550 -96.3700 159° South 459 528 21,900 -3,540 Descending Houston Center
10:29PM 30.4628 -96.3250 157° South 439 505 19,100 -3,480 Descending Houston Center
10:30PM 30.4156 -96.3056 160° South 421 484 17,700 -3,480 Descending Houston Center
10:30PM 30.3539 -96.2753 157° South 419 482 15,600 -3,480 Descending Houston Center
10:31PM 30.3106 -96.2544 157° South 407 468 14,200 -3,360 Descending Houston Center
10:31PM 30.2486 -96.2269 159° South 406 467 12,200 -3,540 Descending Houston Center
10:32PM 30.2233 -96.2158 159° South 392 451 11,400 -1,200 Descending Houston Center
10:32PM 30.1489 -96.1767 156° South 391 450 11,000 -360 Descending Houston Center
10:33PM 30.1069 -96.1542 155° Southeast 390 449 11,000 -120 Level Houston Center
10:33PM 30.0639 -96.1308 155° Southeast 391 450 10,900  Descending Houston Center
10:34PM 30.0167 -96.1064 156° South 389 448 11,000 60 Climbing Houston Center
10:35PM 29.9153 -96.0503 154° Southeast 385 443 11,000  Level Houston Center
10:35PM 29.8772 -96.0053 134° Southeast 386 444 11,000  Level Houston Center
10:36PM 29.8406 -95.9625 135° Southeast 386 444 11,000 -240 Level Houston Center
10:36PM 29.8047 -95.9153 131° Southeast 384 442 10,800 -540 Descending Houston Center
10:37PM 29.7911 -95.8528 104° East 390 449 10,500 -720 Descending Houston Center
10:37PM 29.7792 -95.7722 100° East 379 436 10,100 -600 Descending Houston Center
10:38PM 29.7781 -95.7508 93° East 340 391 10,000 -840 Descending Houston Center
10:38PM 29.7647 -95.6747 101° East 312 359 9,300 -1,020 Descending Houston Center
10:39PM 29.7639 -95.6633 95° East 289 333 9,100 -1,680 Descending Houston Center
10:39PM 29.7578 -95.5833 95° East 291 335 7,600 -1,740 Descending Houston Center
10:40PM 29.7589 -95.5606 87° East 289 333 7,200 -2,580 Descending Houston Center
10:41PM 29.7642 -95.4961 85° East 277 319 5,000 -2,880 Descending Houston Center
10:41PM 29.7644 -95.4828 89° East 261 300 4,600 -2,400 Descending Houston Center
10:42PM 29.7642 -95.4181 90° East 250 288 2,600 -2,220 Descending Houston Center
10:42PM 29.7578 -95.4092 130° Southeast 220 253 2,400 -720 Descending Houston Center
10:43PM 29.7228 -95.3722 137° Southeast 170 196 1,900 -480 Descending Houston Center
10:43PM 29.7250 -95.3761 303° West 207 238 2,000 -600 Climbing Houston Center
10:44PM 29.6947 -95.3397 134° Southeast 141 162 1,300 -720 Descending Houston Center
10:44PM 29.6972 -95.3411 334° Northwest 175 201 1,300 -600 Level Houston Center
10:45PM 29.6711 -95.3111 135° Southeast 114 131 700 -540 Descending Houston Center
10:45PM 29.6750 -95.3150 319° Northwest 142 163 800 -600 Climbing Houston Center
10:46PM 29.6522 -95.2881 134° Southeast 125 144 100 -720 Descending Houston Center
10:48PM 29.6454 -95.2789 115° Southeast  Level Estimated